Terminal Aerodrome Forecast
Issued by NWS

Home | Current Version | Previous Version | Text Only | Print | Product List | Glossary On
Versions: 1 2 3 4 5 6 7 8 9 10 11 12 13 14 15 16 17 18
012
FTUS46 KPDT 261604 AAC
TAFALW
TAF AMD
KALW 261604Z 2616/2712 19008KT 1SM -SN BR BKN006 OVC025
      TEMPO 2616/2618 2SM -SN SCT006 OVC025
     FM261800 22008KT 3SM -SN BR SCT011 OVC035
     FM270300 14005KT 6SM -SN BR OVC040=

USA.gov is the U.S. government's official web portal to all federal, state and local government web resources and services.